sensor_id;sensor_type;location;lat;lon;timestamp;pressure;altitude;pressure_sealevel;temperature
31528;BMP280;10206;48.012;10.030;2022-12-18T00:01:12;95585.13;;;-0.79
31528;BMP280;10206;48.012;10.030;2022-12-18T00:03:39;95584.03;;;-0.87
31528;BMP280;10206;48.012;10.030;2022-12-18T00:06:05;95588.66;;;-1.02
31528;BMP280;10206;48.012;10.030;2022-12-18T00:08:31;95592.66;;;-1.27
31528;BMP280;10206;48.012;10.030;2022-12-18T00:11:05;95598.91;;;-1.15
31528;BMP280;10206;48.012;10.030;2022-12-18T00:13:31;95588.03;;;-1.12
31528;BMP280;10206;48.012;10.030;2022-12-18T00:16:06;95588.97;;;-1.68
31528;BMP280;10206;48.012;10.030;2022-12-18T00:18:33;95595.00;;;-1.43
31528;BMP280;10206;48.012;10.030;2022-12-18T00:21:00;95596.53;;;-1.13
31528;BMP280;10206;48.012;10.030;2022-12-18T00:23:27;95604.31;;;-1.92
31528;BMP280;10206;48.012;10.030;2022-12-18T00:25:54;95613.09;;;-1.53
31528;BMP280;10206;48.012;10.030;2022-12-18T00:28:20;95605.34;;;-1.36
31528;BMP280;10206;48.012;10.030;2022-12-18T00:30:46;95609.19;;;-1.67
31528;BMP280;10206;48.012;10.030;2022-12-18T00:33:12;95610.19;;;-1.11
31528;BMP280;10206;48.012;10.030;2022-12-18T00:35:38;95612.22;;;-1.21
31528;BMP280;10206;48.012;10.030;2022-12-18T00:38:04;95611.84;;;-1.67
31528;BMP280;10206;48.012;10.030;2022-12-18T00:40:32;95617.25;;;-1.52
31528;BMP280;10206;48.012;10.030;2022-12-18T00:42:58;95613.75;;;-1.82
31528;BMP280;10206;48.012;10.030;2022-12-18T00:45:33;95623.00;;;-1.92
31528;BMP280;10206;48.012;10.030;2022-12-18T00:47:59;95615.63;;;-2.21
31528;BMP280;10206;48.012;10.030;2022-12-18T00:50:26;95625.06;;;-1.63
31528;BMP280;10206;48.012;10.030;2022-12-18T00:52:52;95629.31;;;-2.70
31528;BMP280;10206;48.012;10.030;2022-12-18T00:55:19;95637.53;;;-1.84
31528;BMP280;10206;48.012;10.030;2022-12-18T00:57:45;95635.06;;;-1.34
31528;BMP280;10206;48.012;10.030;2022-12-18T01:00:13;95626.97;;;-1.25
31528;BMP280;10206;48.012;10.030;2022-12-18T01:02:40;95619.97;;;-2.32
31528;BMP280;10206;48.012;10.030;2022-12-18T01:05:07;95617.69;;;-1.39
31528;BMP280;10206;48.012;10.030;2022-12-18T01:07:33;95624.13;;;-1.22
31528;BMP280;10206;48.012;10.030;2022-12-18T01:09:59;95624.13;;;-1.07
31528;BMP280;10206;48.012;10.030;2022-12-18T01:12:25;95626.59;;;-1.18
31528;BMP280;10206;48.012;10.030;2022-12-18T01:14:51;95631.41;;;-1.08
31528;BMP280;10206;48.012;10.030;2022-12-18T01:17:17;95640.78;;;-1.80
31528;BMP280;10206;48.012;10.030;2022-12-18T01:19:43;95638.41;;;-1.78
31528;BMP280;10206;48.012;10.030;2022-12-18T01:22:09;95633.88;;;-2.19
31528;BMP280;10206;48.012;10.030;2022-12-18T01:24:36;95639.66;;;-1.97
31528;BMP280;10206;48.012;10.030;2022-12-18T01:27:02;95651.97;;;-1.67
31528;BMP280;10206;48.012;10.030;2022-12-18T01:29:28;95652.03;;;-1.37
31528;BMP280;10206;48.012;10.030;2022-12-18T01:31:55;95657.50;;;-1.32
31528;BMP280;10206;48.012;10.030;2022-12-18T01:34:22;95669.25;;;-1.15
31528;BMP280;10206;48.012;10.030;2022-12-18T01:36:48;95660.00;;;-1.28
31528;BMP280;10206;48.012;10.030;2022-12-18T01:39:15;95660.03;;;-1.14
31528;BMP280;10206;48.012;10.030;2022-12-18T01:41:41;95670.25;;;-2.22
31528;BMP280;10206;48.012;10.030;2022-12-18T01:49:54;95673.31;;;-1.81
31528;BMP280;10206;48.012;10.030;2022-12-18T01:52:22;95674.50;;;-2.48
31528;BMP280;10206;48.012;10.030;2022-12-18T01:54:51;95669.81;;;-2.29
31528;BMP280;10206;48.012;10.030;2022-12-18T01:57:18;95672.38;;;-2.95
31528;BMP280;10206;48.012;10.030;2022-12-18T01:59:47;95660.44;;;-1.92
31528;BMP280;10206;48.012;10.030;2022-12-18T02:02:17;95673.16;;;-1.87
31528;BMP280;10206;48.012;10.030;2022-12-18T02:04:43;95664.84;;;-1.80
31528;BMP280;10206;48.012;10.030;2022-12-18T02:12:48;95670.19;;;-1.80
31528;BMP280;10206;48.012;10.030;2022-12-18T02:15:17;95667.84;;;-1.63
31528;BMP280;10206;48.012;10.030;2022-12-18T02:18:08;95658.56;;;-1.38
31528;BMP280;10206;48.012;10.030;2022-12-18T02:20:48;95657.66;;;-1.74
31528;BMP280;10206;48.012;10.030;2022-12-18T02:28:17;95658.44;;;-1.20
31528;BMP280;10206;48.012;10.030;2022-12-18T02:30:48;95657.66;;;-1.35
31528;BMP280;10206;48.012;10.030;2022-12-18T02:33:16;95655.03;;;-1.21
31528;BMP280;10206;48.012;10.030;2022-12-18T02:35:45;95661.19;;;-1.68
31528;BMP280;10206;48.012;10.030;2022-12-18T02:38:12;95647.25;;;-1.33
31528;BMP280;10206;48.012;10.030;2022-12-18T02:40:40;95659.56;;;-1.27
31528;BMP280;10206;48.012;10.030;2022-12-18T02:43:12;95658.56;;;-1.38
31528;BMP280;10206;48.012;10.030;2022-12-18T02:45:54;95652.72;;;-1.28
31528;BMP280;10206;48.012;10.030;2022-12-18T02:48:24;95652.44;;;-1.15
31528;BMP280;10206;48.012;10.030;2022-12-18T02:53:36;95656.56;;;-1.91
31528;BMP280;10206;48.012;10.030;2022-12-18T02:56:20;95652.19;;;-2.03
31528;BMP280;10206;48.012;10.030;2022-12-18T02:58:58;95654.31;;;-1.45
31528;BMP280;10206;48.012;10.030;2022-12-18T03:04:20;95656.53;;;-1.20
31528;BMP280;10206;48.012;10.030;2022-12-18T03:06:53;95642.81;;;-1.36
31528;BMP280;10206;48.012;10.030;2022-12-18T03:09:28;95650.44;;;-1.59
31528;BMP280;10206;48.012;10.030;2022-12-18T03:12:18;95653.19;;;-1.15
31528;BMP280;10206;48.012;10.030;2022-12-18T03:14:55;95646.66;;;-1.14
31528;BMP280;10206;48.012;10.030;2022-12-18T03:17:23;95654.75;;;-1.08
31528;BMP280;10206;48.012;10.030;2022-12-18T03:19:52;95665.91;;;-1.10
31528;BMP280;10206;48.012;10.030;2022-12-18T03:22:20;95669.69;;;-1.55
31528;BMP280;10206;48.012;10.030;2022-12-18T03:24:48;95661.72;;;-1.40
31528;BMP280;10206;48.012;10.030;2022-12-18T03:27:18;95667.88;;;-1.10
31528;BMP280;10206;48.012;10.030;2022-12-18T03:29:52;95664.97;;;-1.36
31528;BMP280;10206;48.012;10.030;2022-12-18T03:32:31;95663.44;;;-1.13
31528;BMP280;10206;48.012;10.030;2022-12-18T03:35:02;95671.84;;;-1.44
31528;BMP280;10206;48.012;10.030;2022-12-18T03:37:29;95675.69;;;-1.07
31528;BMP280;10206;48.012;10.030;2022-12-18T03:39:55;95673.41;;;-1.14
31528;BMP280;10206;48.012;10.030;2022-12-18T03:42:32;95669.25;;;-1.29
31528;BMP280;10206;48.012;10.030;2022-12-18T03:45:32;95669.25;;;-1.29
31528;BMP280;10206;48.012;10.030;2022-12-18T03:48:19;95659.97;;;-1.43
31528;BMP280;10206;48.012;10.030;2022-12-18T03:50:57;95671.53;;;-1.22
31528;BMP280;10206;48.012;10.030;2022-12-18T03:56:22;95675.72;;;-1.92
31528;BMP280;10206;48.012;10.030;2022-12-18T03:58:52;95674.34;;;-1.79
31528;BMP280;10206;48.012;10.030;2022-12-18T04:01:20;95681.72;;;-1.50
31528;BMP280;10206;48.012;10.030;2022-12-18T04:03:49;95685.91;;;-1.58
31528;BMP280;10206;48.012;10.030;2022-12-18T04:06:17;95673.09;;;-1.30
31528;BMP280;10206;48.012;10.030;2022-12-18T04:08:44;95665.75;;;-1.21
31528;BMP280;10206;48.012;10.030;2022-12-18T04:11:11;95674.22;;;-1.22
31528;BMP280;10206;48.012;10.030;2022-12-18T04:13:38;95679.31;;;-1.10
31528;BMP280;10206;48.012;10.030;2022-12-18T04:16:04;95671.38;;;-1.04
31528;BMP280;10206;48.012;10.030;2022-12-18T04:18:31;95677.53;;;-1.27
31528;BMP280;10206;48.012;10.030;2022-12-18T04:20:57;95686.75;;;-1.28
31528;BMP280;10206;48.012;10.030;2022-12-18T04:23:23;95687.31;;;-1.24
31528;BMP280;10206;48.012;10.030;2022-12-18T04:25:49;95680.50;;;-1.25
31528;BMP280;10206;48.012;10.030;2022-12-18T04:28:15;95684.38;;;-1.12
31528;BMP280;10206;48.012;10.030;2022-12-18T04:30:41;95691.50;;;-1.23
31528;BMP280;10206;48.012;10.030;2022-12-18T04:33:12;95684.78;;;-1.42
31528;BMP280;10206;48.012;10.030;2022-12-18T04:35:39;95691.25;;;-1.34
31528;BMP280;10206;48.012;10.030;2022-12-18T04:38:07;95692.34;;;-1.41
31528;BMP280;10206;48.012;10.030;2022-12-18T04:40:34;95689.53;;;-1.23
31528;BMP280;10206;48.012;10.030;2022-12-18T04:43:00;95683.03;;;-1.45
31528;BMP280;10206;48.012;10.030;2022-12-18T04:45:26;95691.81;;;-1.69
31528;BMP280;10206;48.012;10.030;2022-12-18T04:47:52;95691.88;;;-1.78
31528;BMP280;10206;48.012;10.030;2022-12-18T04:50:18;95700.59;;;-1.30
31528;BMP280;10206;48.012;10.030;2022-12-18T04:52:45;95701.09;;;-1.40
31528;BMP280;10206;48.012;10.030;2022-12-18T04:55:11;95701.78;;;-1.31
31528;BMP280;10206;48.012;10.030;2022-12-18T04:57:37;95696.41;;;-1.45
31528;BMP280;10206;48.012;10.030;2022-12-18T05:00:03;95698.69;;;-1.38
31528;BMP280;10206;48.012;10.030;2022-12-18T05:02:29;95704.28;;;-1.27
31528;BMP280;10206;48.012;10.030;2022-12-18T05:04:55;95713.63;;;-1.46
31528;BMP280;10206;48.012;10.030;2022-12-18T05:07:22;95722.56;;;-1.73
31528;BMP280;10206;48.012;10.030;2022-12-18T05:09:48;95729.03;;;-1.41
31528;BMP280;10206;48.012;10.030;2022-12-18T05:12:14;95733.25;;;-2.06
31528;BMP280;10206;48.012;10.030;2022-12-18T05:14:40;95734.34;;;-1.80
31528;BMP280;10206;48.012;10.030;2022-12-18T05:17:06;95732.94;;;-1.99
31528;BMP280;10206;48.012;10.030;2022-12-18T05:19:32;95735.25;;;-1.83
31528;BMP280;10206;48.012;10.030;2022-12-18T05:21:58;95738.09;;;-1.39
31528;BMP280;10206;48.012;10.030;2022-12-18T05:24:24;95736.78;;;-2.33
31528;BMP280;10206;48.012;10.030;2022-12-18T05:26:50;95745.13;;;-1.65
31528;BMP280;10206;48.012;10.030;2022-12-18T05:29:16;95741.63;;;-1.57
31528;BMP280;10206;48.012;10.030;2022-12-18T05:31:42;95737.81;;;-1.65
31528;BMP280;10206;48.012;10.030;2022-12-18T05:34:09;95727.78;;;-1.55
31528;BMP280;10206;48.012;10.030;2022-12-18T05:36:35;95729.69;;;-1.46
31528;BMP280;10206;48.012;10.030;2022-12-18T05:39:01;95733.34;;;-1.59
31528;BMP280;10206;48.012;10.030;2022-12-18T05:41:27;95737.81;;;-1.41
31528;BMP280;10206;48.012;10.030;2022-12-18T05:43:54;95745.66;;;-1.61
31528;BMP280;10206;48.012;10.030;2022-12-18T05:46:21;95747.09;;;-1.75
31528;BMP280;10206;48.012;10.030;2022-12-18T05:48:47;95745.84;;;-1.65
31528;BMP280;10206;48.012;10.030;2022-12-18T05:51:16;95738.13;;;-1.63
31528;BMP280;10206;48.012;10.030;2022-12-18T05:53:43;95733.53;;;-1.47
31528;BMP280;10206;48.012;10.030;2022-12-18T05:56:12;95736.69;;;-1.73
31528;BMP280;10206;48.012;10.030;2022-12-18T05:58:38;95748.16;;;-1.58
31528;BMP280;10206;48.012;10.030;2022-12-18T06:01:14;95748.91;;;-1.81
31528;BMP280;10206;48.012;10.030;2022-12-18T06:03:40;95748.22;;;-1.67
31528;BMP280;10206;48.012;10.030;2022-12-18T06:06:19;95751.47;;;-1.63
31528;BMP280;10206;48.012;10.030;2022-12-18T06:08:46;95753.81;;;-1.56
31528;BMP280;10206;48.012;10.030;2022-12-18T06:11:12;95761.28;;;-1.60
31528;BMP280;10206;48.012;10.030;2022-12-18T06:13:39;95757.75;;;-1.66
31528;BMP280;10206;48.012;10.030;2022-12-18T06:16:05;95762.78;;;-1.68
31528;BMP280;10206;48.012;10.030;2022-12-18T06:18:32;95764.38;;;-1.61
31528;BMP280;10206;48.012;10.030;2022-12-18T06:21:00;95774.66;;;-1.60
31528;BMP280;10206;48.012;10.030;2022-12-18T06:23:27;95768.31;;;-1.71
31528;BMP280;10206;48.012;10.030;2022-12-18T06:25:53;95765.28;;;-1.97
31528;BMP280;10206;48.012;10.030;2022-12-18T06:28:19;95768.81;;;-1.82
31528;BMP280;10206;48.012;10.030;2022-12-18T06:30:47;95767.19;;;-1.88
31528;BMP280;10206;48.012;10.030;2022-12-18T06:33:14;95768.19;;;-2.19
31528;BMP280;10206;48.012;10.030;2022-12-18T06:35:41;95761.00;;;-2.64
31528;BMP280;10206;48.012;10.030;2022-12-18T06:38:07;95764.09;;;-1.96
31528;BMP280;10206;48.012;10.030;2022-12-18T06:40:33;95763.97;;;-2.52
31528;BMP280;10206;48.012;10.030;2022-12-18T06:42:59;95758.09;;;-2.15
31528;BMP280;10206;48.012;10.030;2022-12-18T06:45:26;95756.50;;;-1.88
31528;BMP280;10206;48.012;10.030;2022-12-18T06:47:52;95753.50;;;-2.14
31528;BMP280;10206;48.012;10.030;2022-12-18T06:50:18;95758.94;;;-3.23
31528;BMP280;10206;48.012;10.030;2022-12-18T06:52:44;95766.50;;;-2.94
31528;BMP280;10206;48.012;10.030;2022-12-18T06:55:11;95772.91;;;-2.55
31528;BMP280;10206;48.012;10.030;2022-12-18T06:57:37;95780.06;;;-2.11
31528;BMP280;10206;48.012;10.030;2022-12-18T07:00:05;95780.59;;;-2.76
31528;BMP280;10206;48.012;10.030;2022-12-18T07:02:31;95792.69;;;-2.29
31528;BMP280;10206;48.012;10.030;2022-12-18T07:04:58;95789.72;;;-2.22
31528;BMP280;10206;48.012;10.030;2022-12-18T07:07:24;95786.19;;;-2.37
31528;BMP280;10206;48.012;10.030;2022-12-18T07:09:50;95790.50;;;-2.40
31528;BMP280;10206;48.012;10.030;2022-12-18T07:12:17;95797.78;;;-2.95
31528;BMP280;10206;48.012;10.030;2022-12-18T07:14:43;95799.94;;;-2.12
31528;BMP280;10206;48.012;10.030;2022-12-18T07:17:09;95800.09;;;-2.15
31528;BMP280;10206;48.012;10.030;2022-12-18T07:19:35;95804.84;;;-2.19
31528;BMP280;10206;48.012;10.030;2022-12-18T07:22:02;95806.41;;;-2.73
31528;BMP280;10206;48.012;10.030;2022-12-18T07:24:28;95821.38;;;-2.84
31528;BMP280;10206;48.012;10.030;2022-12-18T07:26:54;95812.28;;;-3.23
31528;BMP280;10206;48.012;10.030;2022-12-18T07:29:20;95816.19;;;-2.79
31528;BMP280;10206;48.012;10.030;2022-12-18T07:31:46;95812.59;;;-3.21
31528;BMP280;10206;48.012;10.030;2022-12-18T07:34:13;95818.84;;;-2.33
31528;BMP280;10206;48.012;10.030;2022-12-18T07:36:40;95827.31;;;-2.80
31528;BMP280;10206;48.012;10.030;2022-12-18T07:39:07;95833.25;;;-2.76
31528;BMP280;10206;48.012;10.030;2022-12-18T07:41:33;95826.41;;;-3.63
31528;BMP280;10206;48.012;10.030;2022-12-18T07:43:59;95835.69;;;-3.27
31528;BMP280;10206;48.012;10.030;2022-12-18T07:46:25;95843.94;;;-2.58
31528;BMP280;10206;48.012;10.030;2022-12-18T07:48:51;95844.50;;;-2.18
31528;BMP280;10206;48.012;10.030;2022-12-18T07:51:18;95841.38;;;-2.34
31528;BMP280;10206;48.012;10.030;2022-12-18T07:53:44;95834.59;;;-2.53
31528;BMP280;10206;48.012;10.030;2022-12-18T07:56:12;95846.16;;;-2.66
31528;BMP280;10206;48.012;10.030;2022-12-18T07:58:39;95842.28;;;-2.37
31528;BMP280;10206;48.012;10.030;2022-12-18T08:01:05;95852.38;;;-2.78
31528;BMP280;10206;48.012;10.030;2022-12-18T08:03:32;95848.44;;;-3.22
31528;BMP280;10206;48.012;10.030;2022-12-18T08:06:02;95851.38;;;-3.29
31528;BMP280;10206;48.012;10.030;2022-12-18T08:08:29;95846.91;;;-2.56
31528;BMP280;10206;48.012;10.030;2022-12-18T08:10:56;95852.38;;;-2.41
31528;BMP280;10206;48.012;10.030;2022-12-18T08:13:22;95854.47;;;-2.36
31528;BMP280;10206;48.012;10.030;2022-12-18T08:16:02;95849.97;;;-3.03
31528;BMP280;10206;48.012;10.030;2022-12-18T08:18:29;95852.06;;;-2.34
31528;BMP280;10206;48.012;10.030;2022-12-18T08:20:56;95869.53;;;-1.97
31528;BMP280;10206;48.012;10.030;2022-12-18T08:23:22;95867.06;;;-1.68
31528;BMP280;10206;48.012;10.030;2022-12-18T08:25:48;95855.69;;;-1.44
31528;BMP280;10206;48.012;10.030;2022-12-18T08:28:15;95862.47;;;-1.67
31528;BMP280;10206;48.012;10.030;2022-12-18T08:30:42;95864.81;;;-1.60
31528;BMP280;10206;48.012;10.030;2022-12-18T08:33:08;95855.25;;;-1.76
31528;BMP280;10206;48.012;10.030;2022-12-18T08:35:37;95858.00;;;-2.30
31528;BMP280;10206;48.012;10.030;2022-12-18T08:38:04;95853.38;;;-2.12
31528;BMP280;10206;48.012;10.030;2022-12-18T08:40:30;95854.72;;;-2.07
31528;BMP280;10206;48.012;10.030;2022-12-18T08:42:56;95861.84;;;-1.20
31528;BMP280;10206;48.012;10.030;2022-12-18T08:45:41;95857.00;;;-1.40
31528;BMP280;10206;48.012;10.030;2022-12-18T08:48:07;95860.13;;;-1.41
31528;BMP280;10206;48.012;10.030;2022-12-18T08:50:33;95848.97;;;-1.31
31528;BMP280;10206;48.012;10.030;2022-12-18T08:52:59;95855.25;;;-1.10
31528;BMP280;10206;48.012;10.030;2022-12-18T08:55:26;95863.81;;;-0.82
31528;BMP280;10206;48.012;10.030;2022-12-18T08:57:52;95863.88;;;-1.15
31528;BMP280;10206;48.012;10.030;2022-12-18T09:00:18;95870.50;;;-0.78
31528;BMP280;10206;48.012;10.030;2022-12-18T09:02:44;95869.63;;;-0.84
31528;BMP280;10206;48.012;10.030;2022-12-18T09:05:10;95859.91;;;-1.52
31528;BMP280;10206;48.012;10.030;2022-12-18T09:07:36;95862.75;;;-0.99
31528;BMP280;10206;48.012;10.030;2022-12-18T09:10:03;95865.25;;;-0.96
31528;BMP280;10206;48.012;10.030;2022-12-18T09:12:29;95858.63;;;-0.86
31528;BMP280;10206;48.012;10.030;2022-12-18T09:14:56;95856.47;;;-0.96
31528;BMP280;10206;48.012;10.030;2022-12-18T09:17:22;95870.31;;;-0.36
31528;BMP280;10206;48.012;10.030;2022-12-18T09:19:48;95870.03;;;-1.00
31528;BMP280;10206;48.012;10.030;2022-12-18T09:22:15;95871.44;;;-0.90
31528;BMP280;10206;48.012;10.030;2022-12-18T09:24:41;95870.91;;;-0.94
31528;BMP280;10206;48.012;10.030;2022-12-18T09:27:07;95883.41;;;-0.53
31528;BMP280;10206;48.012;10.030;2022-12-18T09:29:33;95876.88;;;-0.75
31528;BMP280;10206;48.012;10.030;2022-12-18T09:32:00;95861.50;;;-0.51
31528;BMP280;10206;48.012;10.030;2022-12-18T09:34:26;95863.53;;;-1.32
31528;BMP280;10206;48.012;10.030;2022-12-18T09:36:52;95861.22;;;-1.15
31528;BMP280;10206;48.012;10.030;2022-12-18T09:39:18;95856.81;;;-0.80
31528;BMP280;10206;48.012;10.030;2022-12-18T09:44:29;95866.41;;;-0.49
31528;BMP280;10206;48.012;10.030;2022-12-18T09:46:58;95863.88;;;-1.15
31528;BMP280;10206;48.012;10.030;2022-12-18T09:49:29;95870.44;;;-0.69
31528;BMP280;10206;48.012;10.030;2022-12-18T09:54:26;95861.84;;;-0.20
31528;BMP280;10206;48.012;10.030;2022-12-18T09:56:56;95856.44;;;-1.11
31528;BMP280;10206;48.012;10.030;2022-12-18T09:59:32;95865.00;;;-0.83
31528;BMP280;10206;48.012;10.030;2022-12-18T10:01:59;95869.38;;;-0.33
31528;BMP280;10206;48.012;10.030;2022-12-18T10:04:26;95864.88;;;-0.12
31528;BMP280;10206;48.012;10.030;2022-12-18T10:07:01;95870.16;;;-0.18
31528;BMP280;10206;48.012;10.030;2022-12-18T10:09:34;95880.69;;;0.15
31528;BMP280;10206;48.012;10.030;2022-12-18T10:17:55;95871.19;;;0.49
31528;BMP280;10206;48.012;10.030;2022-12-18T10:20:39;95864.31;;;0.28
31528;BMP280;10206;48.012;10.030;2022-12-18T10:26:09;95869.09;;;-0.73
31528;BMP280;10206;48.012;10.030;2022-12-18T10:28:37;95866.09;;;0.16
31528;BMP280;10206;48.012;10.030;2022-12-18T10:31:24;95868.69;;;0.45
31528;BMP280;10206;48.012;10.030;2022-12-18T10:33:50;95858.25;;;0.47
31528;BMP280;10206;48.012;10.030;2022-12-18T10:36:17;95851.97;;;0.36
31528;BMP280;10206;48.012;10.030;2022-12-18T10:38:43;95842.78;;;0.42
31528;BMP280;10206;48.012;10.030;2022-12-18T10:43:45;95831.78;;;-0.24
31528;BMP280;10206;48.012;10.030;2022-12-18T10:48:56;95840.72;;;0.52
31528;BMP280;10206;48.012;10.030;2022-12-18T10:51:33;95842.75;;;-0.36
31528;BMP280;10206;48.012;10.030;2022-12-18T10:54:33;95847.13;;;0.05
31528;BMP280;10206;48.012;10.030;2022-12-18T10:57:14;95855.09;;;0.49
31528;BMP280;10206;48.012;10.030;2022-12-18T10:59:56;95865.81;;;0.64
31528;BMP280;10206;48.012;10.030;2022-12-18T11:02:36;95869.91;;;0.44
31528;BMP280;10206;48.012;10.030;2022-12-18T11:05:22;95865.41;;;0.71
31528;BMP280;10206;48.012;10.030;2022-12-18T11:07:50;95869.38;;;0.75
31528;BMP280;10206;48.012;10.030;2022-12-18T11:10:21;95861.78;;;1.34
31528;BMP280;10206;48.012;10.030;2022-12-18T11:12:48;95865.06;;;1.44
31528;BMP280;10206;48.012;10.030;2022-12-18T11:15:20;95882.25;;;1.52
31528;BMP280;10206;48.012;10.030;2022-12-18T11:17:49;95876.41;;;1.33
31528;BMP280;10206;48.012;10.030;2022-12-18T11:20:31;95873.38;;;1.20
31528;BMP280;10206;48.012;10.030;2022-12-18T11:23:04;95880.22;;;0.66
31528;BMP280;10206;48.012;10.030;2022-12-18T11:25:32;95870.69;;;0.30
31528;BMP280;10206;48.012;10.030;2022-12-18T11:28:02;95848.16;;;-0.07
31528;BMP280;10206;48.012;10.030;2022-12-18T11:30:36;95862.44;;;0.69
31528;BMP280;10206;48.012;10.030;2022-12-18T11:33:06;95863.09;;;0.98
31528;BMP280;10206;48.012;10.030;2022-12-18T11:36:01;95863.16;;;1.24
31528;BMP280;10206;48.012;10.030;2022-12-18T11:38:30;95854.34;;;0.83
31528;BMP280;10206;48.012;10.030;2022-12-18T11:40:59;95849.72;;;0.29
31528;BMP280;10206;48.012;10.030;2022-12-18T11:43:43;95843.47;;;0.37
31528;BMP280;10206;48.012;10.030;2022-12-18T11:46:14;95850.66;;;0.81
31528;BMP280;10206;48.012;10.030;2022-12-18T11:48:50;95852.84;;;1.43
31528;BMP280;10206;48.012;10.030;2022-12-18T11:54:23;95854.94;;;1.33
31528;BMP280;10206;48.012;10.030;2022-12-18T12:04:58;95843.16;;;1.05
31528;BMP280;10206;48.012;10.030;2022-12-18T12:16:22;95813.41;;;1.34
31528;BMP280;10206;48.012;10.030;2022-12-18T12:24:49;95788.34;;;1.17
31528;BMP280;10206;48.012;10.030;2022-12-18T12:27:25;95781.81;;;1.03
31528;BMP280;10206;48.012;10.030;2022-12-18T12:38:35;95776.56;;;1.40
31528;BMP280;10206;48.012;10.030;2022-12-18T12:41:05;95778.88;;;1.01
31528;BMP280;10206;48.012;10.030;2022-12-18T12:43:42;95774.38;;;1.13
31528;BMP280;10206;48.012;10.030;2022-12-18T12:46:14;95777.97;;;1.36
31528;BMP280;10206;48.012;10.030;2022-12-18T12:48:55;95775.56;;;1.32
31528;BMP280;10206;48.012;10.030;2022-12-18T12:53:48;95768.56;;;1.46
31528;BMP280;10206;48.012;10.030;2022-12-18T12:56:17;95767.97;;;1.62
31528;BMP280;10206;48.012;10.030;2022-12-18T13:04:12;95773.47;;;1.47
31528;BMP280;10206;48.012;10.030;2022-12-18T13:10:44;95774.00;;;0.60
31528;BMP280;10206;48.012;10.030;2022-12-18T13:20:40;95781.50;;;-0.14
31528;BMP280;10206;48.012;10.030;2022-12-18T13:23:39;95785.09;;;-0.32
31528;BMP280;10206;48.012;10.030;2022-12-18T13:34:20;95784.53;;;0.63
31528;BMP280;10206;48.012;10.030;2022-12-18T13:36:47;95781.03;;;0.57
31528;BMP280;10206;48.012;10.030;2022-12-18T13:41:48;95777.53;;;0.51
31528;BMP280;10206;48.012;10.030;2022-12-18T13:44:25;95776.63;;;0.39
31528;BMP280;10206;48.012;10.030;2022-12-18T13:46:52;95770.69;;;0.50
31528;BMP280;10206;48.012;10.030;2022-12-18T13:49:21;95779.50;;;0.71
31528;BMP280;10206;48.012;10.030;2022-12-18T13:51:50;95777.81;;;0.53
31528;BMP280;10206;48.012;10.030;2022-12-18T13:54:35;95779.09;;;0.58
31528;BMP280;10206;48.012;10.030;2022-12-18T13:57:05;95785.78;;;0.27
31528;BMP280;10206;48.012;10.030;2022-12-18T13:59:39;95783.56;;;0.26
31528;BMP280;10206;48.012;10.030;2022-12-18T14:02:14;95788.00;;;0.29
31528;BMP280;10206;48.012;10.030;2022-12-18T14:04:44;95776.56;;;0.34
31528;BMP280;10206;48.012;10.030;2022-12-18T14:07:13;95771.28;;;0.19
31528;BMP280;10206;48.012;10.030;2022-12-18T14:09:43;95781.53;;;0.21
31528;BMP280;10206;48.012;10.030;2022-12-18T14:12:24;95781.38;;;0.10
31528;BMP280;10206;48.012;10.030;2022-12-18T14:15:39;95787.00;;;0.12
31528;BMP280;10206;48.012;10.030;2022-12-18T14:21:00;95781.44;;;-0.20
31528;BMP280;10206;48.012;10.030;2022-12-18T14:23:41;95783.03;;;0.07
31528;BMP280;10206;48.012;10.030;2022-12-18T14:26:26;95784.34;;;-0.03
31528;BMP280;10206;48.012;10.030;2022-12-18T14:28:56;95779.91;;;-0.06
31528;BMP280;10206;48.012;10.030;2022-12-18T14:31:25;95784.38;;;-0.18
31528;BMP280;10206;48.012;10.030;2022-12-18T14:33:52;95787.50;;;-0.05
31528;BMP280;10206;48.012;10.030;2022-12-18T14:36:27;95782.66;;;0.14
31528;BMP280;10206;48.012;10.030;2022-12-18T14:38:54;95781.78;;;-0.12
31528;BMP280;10206;48.012;10.030;2022-12-18T14:41:22;95775.66;;;-0.13
31528;BMP280;10206;48.012;10.030;2022-12-18T14:43:51;95776.31;;;-0.03
31528;BMP280;10206;48.012;10.030;2022-12-18T14:46:36;95774.84;;;-0.04
31528;BMP280;10206;48.012;10.030;2022-12-18T14:51:54;95775.78;;;-0.22
31528;BMP280;10206;48.012;10.030;2022-12-18T14:54:22;95781.94;;;-0.45
31528;BMP280;10206;48.012;10.030;2022-12-18T14:56:54;95779.91;;;-0.35
31528;BMP280;10206;48.012;10.030;2022-12-18T14:59:24;95784.06;;;-0.34
31528;BMP280;10206;48.012;10.030;2022-12-18T15:02:18;95784.81;;;-0.34
31528;BMP280;10206;48.012;10.030;2022-12-18T15:04:45;95788.09;;;-0.83
31528;BMP280;10206;48.012;10.030;2022-12-18T15:07:18;95785.81;;;-0.61
31528;BMP280;10206;48.012;10.030;2022-12-18T15:12:46;95791.50;;;-0.97
31528;BMP280;10206;48.012;10.030;2022-12-18T15:21:08;95791.13;;;-0.90
31528;BMP280;10206;48.012;10.030;2022-12-18T15:26:11;95789.50;;;-0.87
31528;BMP280;10206;48.012;10.030;2022-12-18T15:28:52;95800.75;;;-0.83
31528;BMP280;10206;48.012;10.030;2022-12-18T15:31:34;95789.78;;;-1.09
31528;BMP280;10206;48.012;10.030;2022-12-18T15:34:18;95800.16;;;-1.02
31528;BMP280;10206;48.012;10.030;2022-12-18T15:36:46;95801.84;;;-0.90
31528;BMP280;10206;48.012;10.030;2022-12-18T15:39:13;95799.53;;;-0.97
31528;BMP280;10206;48.012;10.030;2022-12-18T15:41:39;95804.25;;;-0.92
31528;BMP280;10206;48.012;10.030;2022-12-18T15:44:34;95794.44;;;-0.95
31528;BMP280;10206;48.012;10.030;2022-12-18T15:47:00;95807.25;;;-0.99
31528;BMP280;10206;48.012;10.030;2022-12-18T15:49:27;95799.72;;;-1.24
31528;BMP280;10206;48.012;10.030;2022-12-18T15:51:56;95790.13;;;-1.16
31528;BMP280;10206;48.012;10.030;2022-12-18T15:54:23;95799.75;;;-1.10
31528;BMP280;10206;48.012;10.030;2022-12-18T15:57:10;95790.09;;;-1.07
31528;BMP280;10206;48.012;10.030;2022-12-18T15:59:49;95798.63;;;-1.18
31528;BMP280;10206;48.012;10.030;2022-12-18T16:02:17;95796.81;;;-1.12
31528;BMP280;10206;48.012;10.030;2022-12-18T16:04:44;95790.53;;;-1.09
31528;BMP280;10206;48.012;10.030;2022-12-18T16:07:12;95798.22;;;-1.01
31528;BMP280;10206;48.012;10.030;2022-12-18T16:09:38;95788.88;;;-1.06
31528;BMP280;10206;48.012;10.030;2022-12-18T16:12:05;95799.88;;;-1.04
31528;BMP280;10206;48.012;10.030;2022-12-18T16:14:33;95798.13;;;-1.31
31528;BMP280;10206;48.012;10.030;2022-12-18T16:17:02;95793.09;;;-1.14
31528;BMP280;10206;48.012;10.030;2022-12-18T16:19:29;95802.66;;;-1.22